Terminal Aerodrome Forecast
Issued by NWS Albany, NY

Current Version | Previous Version | Text Only | Print | Product List | Glossary On
Versions: 1 2 3 4 5 6 7 8 9 10 11 12 13 14
000
FTUS41 KALY 191123
TAFALB
TAF
KALB 191123Z 1912/2012 17008KT P6SM FEW250
     FM191500 18015G22KT P6SM SKC
     FM200100 20008KT P6SM SCT060 BKN250
     FM200500 27006KT P6SM SCT250=

USA.gov is the U.S. government's official web portal to all federal, state and local government web resources and services.